Tobago, Trinidad and Tobago
Current Conditions -  °F | °C
As of 12:00 PM on Thursday 30 Oct 2014 (Local Time) from TTCP Reporting Station
Few Clouds Few Clouds  
Wind Chill: 88°   Ceiling: Unl
Heat Index: 96°   Visibility: 6mi
Dew Point: 73°   Wind: 16mph
Humidity: 62%   Direction: 110°ESE
Pressure: 29.85"   Gusts: NA
Location:  11.22°N, 60.67°W
Report Text: TTCP 301600Z 11014KT 9999 FEW030 31/23 Q1011 NOSIG
Loading
Personal Weather Stations






























Interactive Weather Map
Tropical Storm Tracking
New forecast layout! Learn more

10-Day Weather Forecast

Advertisements
Track Severe Weather on mobile